createdAt,value
2022-07-28T00:00:11.548Z,5.30
2022-07-28T00:03:04.595Z,4.70
2022-07-28T00:05:36.925Z,5.60
2022-07-28T00:08:10.651Z,4.30
2022-07-28T00:10:42.915Z,4.90
2022-07-28T00:13:15.426Z,8.10
2022-07-28T00:15:47.756Z,5.00
2022-07-28T00:18:20.211Z,6.10
2022-07-28T00:20:52.545Z,11.70
2022-07-28T00:23:38.734Z,6.40
2022-07-28T00:26:12.618Z,5.50
2022-07-28T00:28:44.907Z,5.40
2022-07-28T00:31:17.214Z,5.50
2022-07-28T00:33:49.938Z,4.70
2022-07-28T00:36:24.694Z,7.00
2022-07-28T00:38:58.669Z,4.50
2022-07-28T00:41:31.797Z,4.30
2022-07-28T00:44:07.041Z,5.10
2022-07-28T00:46:39.651Z,6.20
2022-07-28T00:49:12.799Z,4.80
2022-07-28T00:51:45.601Z,3.70
2022-07-28T00:54:17.872Z,4.60
2022-07-28T00:56:49.925Z,7.00
2022-07-28T00:59:22.211Z,6.80
2022-07-28T01:01:54.806Z,5.00
2022-07-28T01:04:28.567Z,5.30
2022-07-28T01:07:16.691Z,5.10
2022-07-28T01:09:58.213Z,11.80
2022-07-28T01:12:43.490Z,4.40
2022-07-28T01:15:21.413Z,7.20
2022-07-28T01:18:00.806Z,5.30
2022-07-28T01:20:37.101Z,4.10
2022-07-28T01:23:42.613Z,10.80
2022-07-28T01:26:35.797Z,5.60
2022-07-28T01:29:25.237Z,9.20
2022-07-28T01:32:04.480Z,7.20
2022-07-28T01:34:51.928Z,6.90
2022-07-28T01:40:01.501Z,8.10
2022-07-28T01:42:39.255Z,6.10
2022-07-28T01:45:15.031Z,8.20
2022-07-28T01:47:50.422Z,7.10
2022-07-28T01:52:58.127Z,7.90
2022-07-28T01:55:32.887Z,9.10
2022-07-28T01:58:06.151Z,5.70
2022-07-28T02:00:39.528Z,6.70
2022-07-28T02:03:13.759Z,7.20
2022-07-28T02:05:47.335Z,8.90
2022-07-28T02:08:21.672Z,9.00
2022-07-28T02:11:13.882Z,6.00
2022-07-28T02:13:48.460Z,6.20
2022-07-28T02:16:25.466Z,9.20
2022-07-28T02:19:00.921Z,6.10
2022-07-28T02:21:36.373Z,7.60
2022-07-28T02:24:13.048Z,5.40
2022-07-28T02:26:50.831Z,6.00
2022-07-28T02:29:49.919Z,7.30
2022-07-28T02:32:28.061Z,9.70
2022-07-28T02:35:09.374Z,8.50
2022-07-28T02:37:50.541Z,6.90
2022-07-28T02:40:24.676Z,8.10
2022-07-28T02:42:59.446Z,11.40
2022-07-28T02:45:35.140Z,9.20
2022-07-28T02:48:12.582Z,5.40
2022-07-28T02:50:46.613Z,8.40
2022-07-28T02:53:20.196Z,8.30
2022-07-28T02:55:54.118Z,8.00
2022-07-28T02:58:29.779Z,6.30
2022-07-28T03:01:04.161Z,8.90
2022-07-28T03:03:41.307Z,6.80
2022-07-28T03:06:16.877Z,11.80
2022-07-28T03:08:50.445Z,7.60
2022-07-28T03:11:22.868Z,6.00
2022-07-28T03:13:55.576Z,10.90
2022-07-28T03:16:28.270Z,7.00
2022-07-28T03:19:00.585Z,11.10
2022-07-28T03:21:32.764Z,7.90
2022-07-28T03:24:05.673Z,8.10
2022-07-28T03:26:42.495Z,7.30
2022-07-28T03:29:17.576Z,8.30
2022-07-28T03:31:50.101Z,8.00
2022-07-28T03:34:22.357Z,9.30
2022-07-28T03:37:01.308Z,10.50
2022-07-28T03:39:39.240Z,10.30
2022-07-28T03:42:13.461Z,8.60
2022-07-28T03:44:46.921Z,8.60
2022-07-28T03:47:24.441Z,12.50
2022-07-28T03:49:56.729Z,8.30
2022-07-28T03:52:29.409Z,7.20
2022-07-28T03:55:01.608Z,12.20
2022-07-28T03:57:34.158Z,8.80
2022-07-28T04:00:09.887Z,7.90
2022-07-28T04:02:46.042Z,10.80
2022-07-28T04:05:20.119Z,13.80
2022-07-28T04:07:52.296Z,9.50
2022-07-28T04:10:24.307Z,11.10
2022-07-28T04:12:58.373Z,8.50
2022-07-28T04:15:32.742Z,8.00
2022-07-28T04:18:05.292Z,12.00
2022-07-28T04:20:37.511Z,9.00
2022-07-28T04:23:10.029Z,11.20
2022-07-28T04:25:42.685Z,12.40
2022-07-28T04:28:15.955Z,12.30
2022-07-28T04:30:48.368Z,11.60
2022-07-28T04:33:20.890Z,10.80
2022-07-28T04:35:54.477Z,13.10
2022-07-28T04:38:27.328Z,9.70
2022-07-28T04:40:59.542Z,9.50
2022-07-28T04:43:32.356Z,11.80
2022-07-28T04:46:04.763Z,11.10
2022-07-28T04:48:37.582Z,7.80
2022-07-28T04:51:09.814Z,10.10
2022-07-28T04:53:42.383Z,12.20
2022-07-28T04:56:14.651Z,11.70
2022-07-28T04:58:47.867Z,9.40
2022-07-28T05:01:21.944Z,10.10
2022-07-28T05:03:54.513Z,8.70
2022-07-28T05:06:26.894Z,10.70
2022-07-28T05:08:59.329Z,10.90
2022-07-28T05:11:32.025Z,9.70
2022-07-28T05:14:04.361Z,8.90
2022-07-28T05:16:36.954Z,11.20
2022-07-28T05:19:10.970Z,9.20
2022-07-28T05:21:43.481Z,7.50
2022-07-28T05:24:16.311Z,12.00
2022-07-28T05:26:48.845Z,14.70
2022-07-28T05:29:21.384Z,12.10
2022-07-28T05:31:53.831Z,7.70
2022-07-28T05:34:26.134Z,9.10
2022-07-28T05:36:58.499Z,8.80
2022-07-28T05:39:33.336Z,8.90
2022-07-28T05:42:06.102Z,12.00
2022-07-28T05:44:38.643Z,10.70
2022-07-28T05:47:11.453Z,7.00
2022-07-28T05:49:43.822Z,7.90
2022-07-28T05:52:15.993Z,8.00
2022-07-28T05:54:48.349Z,7.10
2022-07-28T05:57:20.600Z,6.30
2022-07-28T05:59:52.973Z,6.10
2022-07-28T06:02:25.355Z,6.90
2022-07-28T06:04:58.324Z,10.40
2022-07-28T06:07:43.110Z,6.50
2022-07-28T06:10:19.033Z,4.60
2022-07-28T06:12:52.385Z,6.40
2022-07-28T06:15:26.323Z,9.60
2022-07-28T06:17:58.540Z,3.80
2022-07-28T06:20:30.930Z,5.60
2022-07-28T06:23:03.228Z,5.60
2022-07-28T06:25:35.603Z,8.50
2022-07-28T06:28:08.219Z,3.30
2022-07-28T06:30:40.899Z,7.10
2022-07-28T06:33:17.132Z,5.90
2022-07-28T06:35:51.281Z,2.50
2022-07-28T06:38:24.326Z,8.00
2022-07-28T06:40:58.053Z,6.30
2022-07-28T06:43:31.088Z,5.70
2022-07-28T06:46:04.956Z,7.20
2022-07-28T06:48:39.630Z,4.50
2022-07-28T06:51:12.329Z,3.90
2022-07-28T06:53:47.904Z,7.70
2022-07-28T06:56:21.548Z,3.50
2022-07-28T06:58:53.747Z,3.60
2022-07-28T07:01:26.465Z,4.20
2022-07-28T07:03:58.982Z,3.70
2022-07-28T07:06:31.787Z,7.40
2022-07-28T07:09:04.607Z,4.40
2022-07-28T07:11:37.899Z,7.30
2022-07-28T07:14:10.200Z,3.70
2022-07-28T07:16:42.649Z,6.90
2022-07-28T07:19:16.091Z,4.20
2022-07-28T07:21:48.906Z,5.90
2022-07-28T07:24:21.017Z,7.40
2022-07-28T07:26:55.806Z,5.10
2022-07-28T07:29:30.344Z,5.80
2022-07-28T07:32:06.938Z,3.00
2022-07-28T07:34:43.249Z,3.10
2022-07-28T07:37:15.689Z,4.30
2022-07-28T07:39:48.115Z,3.70
2022-07-28T07:42:20.733Z,4.50
2022-07-28T07:44:59.202Z,3.50
2022-07-28T07:47:31.669Z,5.90
2022-07-28T07:50:04.661Z,7.60
2022-07-28T07:52:37.636Z,3.70
2022-07-28T07:55:11.237Z,4.80
2022-07-28T07:57:44.487Z,2.20
2022-07-28T08:00:29.132Z,5.30
2022-07-28T08:03:02.689Z,4.10
2022-07-28T08:05:36.380Z,3.00
2022-07-28T08:08:09.934Z,3.80
2022-07-28T08:10:42.858Z,5.60
2022-07-28T08:13:15.637Z,4.20
2022-07-28T08:15:48.795Z,4.80
2022-07-28T08:18:21.552Z,5.90
2022-07-28T08:20:54.013Z,6.60
2022-07-28T08:23:26.778Z,3.70
2022-07-28T08:25:58.998Z,6.40
2022-07-28T08:28:31.398Z,4.60
2022-07-28T08:31:04.010Z,8.90
2022-07-28T08:33:53.474Z,6.90
2022-07-28T08:36:27.192Z,3.40
2022-07-28T08:38:59.560Z,4.40
2022-07-28T08:41:38.427Z,4.70
2022-07-28T08:44:12.689Z,5.90
2022-07-28T08:46:48.742Z,4.90
2022-07-28T08:49:22.107Z,3.80
2022-07-28T08:51:58.214Z,4.40
2022-07-28T08:54:33.146Z,4.10
2022-07-28T08:57:06.238Z,5.70
2022-07-28T08:59:40.490Z,3.70
2022-07-28T09:02:14.833Z,4.80
2022-07-28T09:04:48.423Z,7.60
2022-07-28T09:07:20.586Z,5.20
2022-07-28T09:09:57.308Z,4.40
2022-07-28T09:12:36.207Z,3.50
2022-07-28T09:15:10.714Z,4.40
2022-07-28T09:17:43.669Z,5.70
2022-07-28T09:20:16.246Z,5.40
2022-07-28T09:23:02.126Z,4.90
2022-07-28T09:25:35.107Z,6.30
2022-07-28T09:28:12.882Z,3.00
2022-07-28T09:30:54.337Z,4.20
2022-07-28T09:33:41.782Z,4.10
2022-07-28T09:36:18.703Z,4.40
2022-07-28T09:38:51.065Z,2.40
2022-07-28T09:41:23.748Z,3.60
2022-07-28T09:43:56.739Z,3.50
2022-07-28T09:46:31.148Z,4.90
2022-07-28T09:49:04.040Z,4.80
2022-07-28T09:51:36.476Z,4.30
2022-07-28T09:54:14.793Z,2.80
2022-07-28T09:56:48.162Z,6.90
2022-07-28T09:59:20.442Z,3.40
2022-07-28T10:01:58.610Z,11.30
2022-07-28T10:04:38.000Z,1.70
2022-07-28T10:07:11.764Z,2.70
2022-07-28T10:09:45.032Z,3.00
2022-07-28T10:12:19.977Z,3.70
2022-07-28T10:14:54.079Z,4.40
2022-07-28T10:17:32.030Z,3.70
2022-07-28T10:20:07.129Z,2.80
2022-07-28T10:22:43.395Z,4.10
2022-07-28T10:25:15.995Z,4.30
2022-07-28T10:27:50.707Z,2.80
2022-07-28T10:30:23.198Z,3.20
2022-07-28T10:32:59.121Z,5.30
2022-07-28T10:35:33.675Z,4.20
2022-07-28T10:38:35.176Z,5.40
2022-07-28T10:41:10.251Z,3.00
2022-07-28T10:43:45.619Z,5.00
2022-07-28T10:46:18.339Z,5.60
2022-07-28T10:48:51.564Z,5.40
2022-07-28T10:51:28.290Z,3.40
2022-07-28T10:54:10.246Z,4.50
2022-07-28T10:56:57.170Z,4.50
2022-07-28T10:59:55.773Z,5.20
2022-07-28T11:02:48.811Z,2.70
2022-07-28T11:05:39.692Z,3.00
2022-07-28T11:08:27.843Z,3.50
2022-07-28T11:11:07.747Z,3.80
2022-07-28T11:13:43.631Z,3.00
2022-07-28T11:16:25.023Z,3.60
2022-07-28T11:19:36.917Z,6.10
2022-07-28T11:22:29.767Z,5.30
2022-07-28T11:25:22.161Z,3.00
2022-07-28T11:28:06.191Z,4.80
2022-07-28T11:30:56.237Z,4.00
2022-07-28T11:33:57.834Z,2.00
2022-07-28T11:37:02.440Z,6.00
2022-07-28T11:39:42.867Z,3.10
2022-07-28T11:42:29.915Z,4.20
2022-07-28T11:45:38.832Z,4.70
2022-07-28T11:48:23.147Z,3.50
2022-07-28T11:51:12.906Z,2.90
2022-07-28T11:53:47.513Z,4.20
2022-07-28T11:56:29.408Z,4.90
2022-07-28T11:59:02.723Z,2.90
2022-07-28T12:01:37.055Z,2.90
2022-07-28T12:04:14.881Z,2.20
2022-07-28T12:09:41.729Z,2.50
2022-07-28T12:12:16.872Z,3.80
2022-07-28T12:14:50.235Z,4.90
2022-07-28T12:17:22.674Z,4.00
2022-07-28T12:19:54.842Z,2.50
2022-07-28T12:22:28.493Z,3.10
2022-07-28T12:25:01.155Z,3.80
2022-07-28T12:27:35.363Z,7.70
2022-07-28T12:30:13.654Z,5.40
2022-07-28T12:32:47.953Z,3.70
2022-07-28T12:35:20.753Z,6.70
2022-07-28T12:37:53.499Z,2.50
2022-07-28T12:40:30.515Z,3.80
2022-07-28T12:43:03.582Z,4.10
2022-07-28T12:45:44.951Z,3.50
2022-07-28T12:48:18.964Z,2.50
2022-07-28T12:50:51.617Z,3.50
2022-07-28T12:53:27.714Z,5.40
2022-07-28T12:56:05.545Z,4.10
2022-07-28T12:58:37.902Z,2.80
2022-07-28T13:01:12.467Z,2.90
2022-07-28T13:03:53.947Z,2.80
2022-07-28T13:06:26.235Z,3.00
2022-07-28T13:08:58.742Z,5.00
2022-07-28T13:11:45.932Z,2.70
2022-07-28T13:14:19.996Z,3.60
2022-07-28T13:17:01.382Z,3.40
2022-07-28T13:19:34.263Z,3.90
2022-07-28T13:22:09.281Z,3.40
2022-07-28T13:24:42.898Z,3.30
2022-07-28T13:27:16.779Z,4.40
2022-07-28T13:29:49.441Z,2.90
2022-07-28T13:32:21.620Z,1.70
2022-07-28T13:34:56.093Z,2.50
2022-07-28T13:37:28.288Z,2.90
2022-07-28T13:40:01.959Z,2.60
2022-07-28T13:42:34.284Z,3.20
2022-07-28T13:45:08.163Z,2.80
2022-07-28T13:47:42.239Z,2.60
2022-07-28T13:50:16.020Z,4.70
2022-07-28T13:52:48.746Z,1.90
2022-07-28T13:55:23.130Z,3.80
2022-07-28T13:57:56.549Z,2.60
2022-07-28T14:00:29.258Z,3.00
2022-07-28T14:03:01.750Z,1.60
2022-07-28T14:05:34.287Z,3.00
2022-07-28T14:08:08.679Z,2.50
2022-07-28T14:10:43.222Z,2.30
2022-07-28T14:13:20.956Z,4.30
2022-07-28T14:16:02.386Z,3.80
2022-07-28T14:18:39.211Z,9.90
2022-07-28T14:21:11.812Z,8.60
2022-07-28T14:23:44.266Z,7.40
2022-07-28T14:26:34.954Z,4.60
2022-07-28T14:29:11.548Z,3.50
2022-07-28T14:31:44.136Z,8.10
2022-07-28T14:34:16.563Z,3.50
2022-07-28T14:36:49.195Z,3.40
2022-07-28T14:39:23.253Z,6.40
2022-07-28T14:41:56.730Z,2.90
2022-07-28T14:44:30.139Z,4.70
2022-07-28T14:47:03.375Z,3.80
2022-07-28T14:49:35.803Z,3.30
2022-07-28T14:52:09.566Z,2.10
2022-07-28T14:54:41.977Z,6.00
2022-07-28T14:57:15.238Z,3.00
2022-07-28T14:59:47.580Z,4.70
2022-07-28T15:02:20.233Z,4.50
2022-07-28T15:05:01.920Z,4.40
2022-07-28T15:07:34.834Z,5.50
2022-07-28T15:10:08.252Z,1.90
2022-07-28T15:12:40.594Z,3.30
2022-07-28T15:15:15.631Z,1.90
2022-07-28T15:17:48.515Z,2.00
2022-07-28T15:20:20.694Z,8.90
2022-07-28T15:22:53.236Z,5.10
2022-07-28T15:25:25.742Z,3.50
2022-07-28T15:27:58.288Z,6.30
2022-07-28T15:30:30.948Z,4.60
2022-07-28T15:33:06.636Z,3.00
2022-07-28T15:35:57.775Z,3.00
2022-07-28T15:38:32.155Z,3.50
2022-07-28T15:41:04.950Z,4.70
2022-07-28T15:43:37.985Z,5.50
2022-07-28T15:46:13.083Z,3.40
2022-07-28T15:48:47.441Z,3.50
2022-07-28T15:51:22.670Z,4.80
2022-07-28T15:54:00.964Z,4.20
2022-07-28T15:56:35.381Z,2.80
2022-07-28T15:59:08.498Z,2.60
2022-07-28T16:01:45.385Z,5.30
2022-07-28T16:04:18.921Z,2.10
2022-07-28T16:07:09.207Z,3.50
2022-07-28T16:09:46.198Z,3.00
2022-07-28T16:12:19.275Z,3.50
2022-07-28T16:14:53.655Z,3.20
2022-07-28T16:17:26.626Z,2.90
2022-07-28T16:20:02.372Z,5.60
2022-07-28T16:22:37.695Z,3.90
2022-07-28T16:25:16.716Z,3.20
2022-07-28T16:27:49.517Z,2.90
2022-07-28T16:30:22.005Z,7.00
2022-07-28T16:32:54.950Z,3.40
2022-07-28T16:35:32.952Z,7.40
2022-07-28T16:38:07.051Z,3.20
2022-07-28T16:40:39.696Z,2.40
2022-07-28T16:43:11.812Z,3.30
2022-07-28T16:45:45.566Z,5.00
2022-07-28T16:48:17.733Z,3.30
2022-07-28T16:50:50.777Z,5.50
2022-07-28T16:53:22.953Z,3.30
2022-07-28T16:55:56.677Z,5.00
2022-07-28T16:58:29.139Z,4.80
2022-07-28T17:01:01.852Z,3.30
2022-07-28T17:03:34.716Z,4.30
2022-07-28T17:06:07.644Z,2.90
2022-07-28T17:08:39.756Z,3.90
2022-07-28T17:11:15.324Z,3.40
2022-07-28T17:13:47.856Z,3.40
2022-07-28T17:16:20.351Z,3.80
2022-07-28T17:18:52.599Z,2.90
2022-07-28T17:21:26.171Z,3.30
2022-07-28T17:23:58.224Z,3.90
2022-07-28T17:29:24.550Z,6.90
2022-07-28T17:31:56.928Z,4.00
2022-07-28T17:34:29.013Z,4.80
2022-07-28T17:37:01.557Z,4.50
2022-07-28T17:39:36.642Z,27.80
2022-07-28T17:42:09.808Z,14.40
2022-07-28T17:44:42.438Z,33.70
2022-07-28T17:47:16.344Z,70.70
2022-07-28T17:49:48.361Z,63.70
2022-07-28T17:52:21.470Z,49.00
2022-07-28T17:55:11.281Z,21.20
2022-07-28T17:57:43.691Z,44.20
2022-07-28T18:00:17.308Z,12.80
2022-07-28T18:02:51.386Z,19.00
2022-07-28T18:05:23.625Z,17.10
2022-07-28T18:07:59.302Z,12.40
2022-07-28T18:10:31.423Z,6.90
2022-07-28T18:13:04.955Z,9.90
2022-07-28T18:15:37.195Z,6.30
2022-07-28T18:18:14.220Z,15.70
2022-07-28T18:23:17.546Z,11.00
2022-07-28T18:25:49.998Z,8.00
2022-07-28T18:28:22.487Z,7.20
2022-07-28T18:30:56.288Z,11.70
2022-07-28T18:33:31.160Z,7.10
2022-07-28T18:36:03.393Z,7.50
2022-07-28T18:38:36.053Z,7.60
2022-07-28T18:41:08.208Z,6.50
2022-07-28T18:43:41.248Z,6.00
2022-07-28T18:46:13.725Z,6.50
2022-07-28T18:48:50.415Z,4.50
2022-07-28T18:51:25.662Z,4.00
2022-07-28T18:53:59.059Z,5.90
2022-07-28T18:56:31.285Z,6.40
2022-07-28T18:59:03.940Z,10.40
2022-07-28T19:01:36.107Z,6.20
2022-07-28T19:04:08.887Z,8.60
2022-07-28T19:06:41.123Z,4.90
2022-07-28T19:09:13.671Z,6.10
2022-07-28T19:11:46.689Z,14.70
2022-07-28T19:14:20.072Z,9.40
2022-07-28T19:16:52.531Z,6.60
2022-07-28T19:19:25.369Z,6.20
2022-07-28T19:21:57.562Z,11.10
2022-07-28T19:24:31.912Z,6.70
2022-07-28T19:27:05.646Z,4.60
2022-07-28T19:29:38.687Z,6.60
2022-07-28T19:32:12.470Z,8.60
2022-07-28T19:34:45.522Z,5.60
2022-07-28T19:37:19.051Z,6.50
2022-07-28T19:39:51.426Z,8.60
2022-07-28T19:42:24.409Z,6.10
2022-07-28T19:44:57.479Z,6.00
2022-07-28T19:47:29.768Z,8.20
2022-07-28T19:50:02.620Z,8.00
2022-07-28T19:52:35.127Z,6.70
2022-07-28T19:55:11.057Z,6.30
2022-07-28T19:57:45.450Z,9.80
2022-07-28T20:00:18.715Z,10.80
2022-07-28T20:02:51.085Z,8.90
2022-07-28T20:05:24.415Z,6.70
2022-07-28T20:07:56.516Z,8.20
2022-07-28T20:10:29.243Z,7.40
2022-07-28T20:13:02.099Z,7.50
2022-07-28T20:15:35.197Z,15.70
2022-07-28T20:18:07.815Z,9.00
2022-07-28T20:20:40.587Z,11.20
2022-07-28T20:23:12.958Z,10.50
2022-07-28T20:25:46.898Z,8.80
2022-07-28T20:28:18.980Z,9.70
2022-07-28T20:30:53.147Z,8.30
2022-07-28T20:33:25.388Z,9.10
2022-07-28T20:35:58.066Z,11.10
2022-07-28T20:38:30.120Z,11.60
2022-07-28T20:41:03.079Z,10.30
2022-07-28T20:43:38.702Z,14.30
2022-07-28T20:46:11.996Z,12.30
2022-07-28T20:48:44.316Z,10.00
2022-07-28T20:51:18.204Z,9.30
2022-07-28T20:53:50.333Z,9.90
2022-07-28T20:56:22.990Z,8.40
2022-07-28T20:58:55.184Z,8.50
2022-07-28T21:01:27.812Z,12.10
2022-07-28T21:04:00.297Z,7.40
2022-07-28T21:06:34.276Z,8.70
2022-07-28T21:09:10.128Z,7.50
2022-07-28T21:11:42.787Z,6.20
2022-07-28T21:14:15.174Z,8.40
2022-07-28T21:16:49.833Z,8.00
2022-07-28T21:19:22.212Z,8.90
2022-07-28T21:21:54.961Z,6.90
2022-07-28T21:24:26.988Z,6.50
2022-07-28T21:26:59.470Z,9.50
2022-07-28T21:29:31.637Z,10.70
2022-07-28T21:32:06.048Z,7.70
2022-07-28T21:34:38.417Z,5.10
2022-07-28T21:37:11.951Z,5.80
2022-07-28T21:39:44.303Z,6.60
2022-07-28T21:42:16.976Z,7.30
2022-07-28T21:44:49.133Z,7.30
2022-07-28T21:47:21.955Z,6.30
2022-07-28T21:49:54.822Z,4.60
2022-07-28T21:52:29.198Z,8.50
2022-07-28T21:55:02.931Z,10.10
2022-07-28T21:57:35.913Z,6.40
2022-07-28T22:00:12.060Z,9.60
2022-07-28T22:02:44.867Z,9.80
2022-07-28T22:05:17.182Z,10.80
2022-07-28T22:07:49.951Z,10.40
2022-07-28T22:10:23.168Z,7.80
2022-07-28T22:12:55.799Z,10.90
2022-07-28T22:15:28.164Z,10.00
2022-07-28T22:18:01.014Z,9.60
2022-07-28T22:20:33.611Z,14.60
2022-07-28T22:23:18.644Z,10.70
2022-07-28T22:25:58.611Z,12.20
2022-07-28T22:28:31.907Z,7.90
2022-07-28T22:31:08.732Z,9.40
2022-07-28T22:33:42.771Z,10.50
2022-07-28T22:36:15.054Z,11.60
2022-07-28T22:38:47.880Z,9.60
2022-07-28T22:41:19.944Z,9.80
2022-07-28T22:43:52.899Z,13.00
2022-07-28T22:46:25.041Z,10.20
2022-07-28T22:48:57.710Z,10.20
2022-07-28T22:51:30.135Z,12.10
2022-07-28T22:54:02.629Z,8.60
2022-07-28T22:57:27.463Z,11.90
2022-07-28T23:00:20.538Z,11.30
2022-07-28T23:02:52.781Z,11.90
2022-07-28T23:05:25.553Z,9.90
2022-07-28T23:07:59.156Z,13.30
2022-07-28T23:10:32.120Z,8.50
2022-07-28T23:13:05.648Z,8.30
2022-07-28T23:15:39.462Z,7.30
2022-07-28T23:18:14.860Z,7.60
2022-07-28T23:20:48.973Z,8.60
2022-07-28T23:23:21.570Z,10.40
2022-07-28T23:25:54.063Z,6.90
2022-07-28T23:28:26.539Z,9.00
2022-07-28T23:30:59.511Z,6.90
2022-07-28T23:33:55.587Z,7.60
2022-07-28T23:36:26.913Z,8.90
2022-07-28T23:39:01.778Z,7.90
2022-07-28T23:41:34.268Z,8.60
2022-07-28T23:44:07.285Z,12.00
2022-07-28T23:46:39.784Z,6.90
2022-07-28T23:49:12.836Z,7.30
2022-07-28T23:51:47.970Z,10.90
2022-07-28T23:54:21.345Z,13.30
2022-07-28T23:56:57.477Z,7.00
2022-07-28T23:59:29.984Z,7.40
